McFarlan, NC (28102)

11:31 AM EST on January 26, 2015 (GMT -0500)
Cason Old Field | Change Station
CLOSE
Current Station
Personal Weather Station
Location: Morven, NC
Elevation: 371 ft
Nearby Weather Stations

Elev 371 ft 34.85 °N, 80.07 °W | Updated 14 minutes ago

Partly Cloudy
Partly Cloudy
56.3 °F
Feels Like 56.3 °F
N
3.7
Wind Variable Wind from North

Today
High -- | Low -- °F
--% Chance of Precip.
Yesterday
High -- | Low -- °F
Precip. -- in
7:22 AM 5:42 PM
Waxing Crescent, 44% visible
Pressure 29.62 in
Visibility 10.0 miles
Clouds Clear
Dew Point 44 °F
Humidity 63%
Rainfall 0.00 in
Snow Depth Not available.
UV 4 out of 12
Pollen 3.20 out of 12
Air Quality Not available.
Flu Activity Not available.
METAR KCQW 261615Z AUTO 01007KT 10SM CLR 12/04 A2962 RMK AO2

More Conditions Fewer Conditions

Pressure 29.62 in
Visibility 10.0 miles
Clouds Clear
Dew Point 44 °F
Humidity 63%
Rainfall 0.00 in
Snow Depth Not available.
UV 4 out of 12
Pollen 3.20 out of 12
Air Quality Not available.
Flu Activity Not available.
METAR KCQW 261615Z AUTO 01007KT 10SM CLR 12/04 A2962 RMK AO2

More Conditions Fewer Conditions

10-Day Weather Forecast

Almanac

Astronomy

Jan. 26, 2015 Rise Set
Actual Time
Civil Twilight
Nautical Twilight
Astronomical Twilight
Moon
Length of Visible Light
Length of Day
Tomorrow will be .
, % of the Moon is Illuminated

Today's Extremes

State Highs State Lows

Community

WunderPhotos

Upload Photos

1,790,272 photos uploaded!

WunderBlogs® & News

Nearby

Air Quality

  Air Quality AQ Index Pollutant
Not available.

Snow Depth

Station Depth Elevation

Earthquake Activity

City Distance Mag. Time & Date
Minimum magnitude displayed is 2.5.

Coastal Water Temperatures

Place Temperature

Nearby Weather Stations